createdAt,value
2018-07-25T00:00:42.322Z,6.75
2018-07-25T00:03:10.569Z,6.60
2018-07-25T00:05:39.061Z,6.87
2018-07-25T00:08:07.564Z,6.58
2018-07-25T00:10:41.432Z,6.90
2018-07-25T00:13:10.462Z,6.72
2018-07-25T00:15:39.269Z,6.80
2018-07-25T00:18:07.604Z,6.90
2018-07-25T00:20:36.113Z,6.70
2018-07-25T00:23:04.491Z,7.05
2018-07-25T00:25:33.125Z,7.60
2018-07-25T00:28:01.507Z,6.92
2018-07-25T00:30:30.609Z,7.20
2018-07-25T00:33:02.180Z,7.80
2018-07-25T00:35:30.572Z,7.00
2018-07-25T00:37:58.974Z,7.33
2018-07-25T00:40:28.095Z,7.35
2018-07-25T00:42:56.413Z,7.28
2018-07-25T00:45:24.910Z,7.30
2018-07-25T00:47:53.288Z,7.20
2018-07-25T00:50:22.120Z,7.12
2018-07-25T00:52:50.410Z,7.30
2018-07-25T00:55:19.423Z,7.62
2018-07-25T00:57:47.499Z,7.17
2018-07-25T01:00:17.558Z,7.55
2018-07-25T01:02:46.124Z,7.03
2018-07-25T01:05:19.919Z,7.25
2018-07-25T01:07:48.058Z,7.20
2018-07-25T01:10:16.183Z,7.20
2018-07-25T01:12:44.643Z,7.30
2018-07-25T01:15:13.780Z,7.22
2018-07-25T01:17:42.373Z,7.30
2018-07-25T01:20:10.969Z,7.15
2018-07-25T01:22:39.363Z,7.30
2018-07-25T01:25:49.380Z,8.08
2018-07-25T01:28:17.812Z,6.90
2018-07-25T01:30:45.898Z,7.28
2018-07-25T01:33:14.277Z,7.10
2018-07-25T01:35:42.584Z,7.17
2018-07-25T01:38:10.972Z,7.70
2018-07-25T01:40:39.417Z,7.33
2018-07-25T01:43:07.669Z,7.13
2018-07-25T01:45:36.182Z,7.20
2018-07-25T01:48:04.596Z,7.47
2018-07-25T01:50:33.616Z,7.20
2018-07-25T01:53:02.026Z,7.03
2018-07-25T01:55:30.294Z,7.90
2018-07-25T01:57:58.976Z,7.40
2018-07-25T02:00:27.423Z,7.47
2018-07-25T02:02:55.705Z,7.70
2018-07-25T02:05:24.025Z,7.25
2018-07-25T02:07:52.325Z,7.40
2018-07-25T02:10:20.709Z,6.83
2018-07-25T02:12:48.907Z,6.97
2018-07-25T02:15:17.305Z,7.27
2018-07-25T02:17:45.814Z,7.30
2018-07-25T02:20:14.087Z,7.15
2018-07-25T02:22:42.602Z,7.30
2018-07-25T02:25:10.905Z,7.55
2018-07-25T02:27:44.832Z,7.20
2018-07-25T02:30:13.148Z,7.30
2018-07-25T02:32:41.388Z,7.30
2018-07-25T02:35:09.606Z,7.12
2018-07-25T02:37:38.108Z,7.20
2018-07-25T02:40:06.218Z,7.60
2018-07-25T02:42:34.528Z,7.00
2018-07-25T02:45:03.129Z,7.42
2018-07-25T02:47:31.508Z,7.50
2018-07-25T02:50:00.432Z,7.30
2018-07-25T02:52:28.742Z,7.50
2018-07-25T02:55:01.119Z,7.95
2018-07-25T02:57:29.620Z,7.33
2018-07-25T02:59:58.489Z,7.15
2018-07-25T03:02:26.633Z,7.50
2018-07-25T03:04:54.797Z,6.80
2018-07-25T03:07:23.083Z,7.40
2018-07-25T03:09:51.616Z,7.40
2018-07-25T03:12:19.875Z,7.50
2018-07-25T03:14:48.292Z,6.83
2018-07-25T03:17:16.710Z,8.00
2018-07-25T03:19:44.766Z,7.33
2018-07-25T03:22:13.104Z,7.40
2018-07-25T03:27:35.566Z,7.70
2018-07-25T03:30:03.950Z,7.58
2018-07-25T03:32:32.468Z,7.80
2018-07-25T03:35:00.669Z,7.40
2018-07-25T03:37:28.875Z,8.08
2018-07-25T03:39:58.904Z,8.10
2018-07-25T03:42:27.296Z,8.18
2018-07-25T03:44:55.906Z,8.00
2018-07-25T03:47:24.190Z,8.30
2018-07-25T03:49:52.281Z,7.20
2018-07-25T03:52:20.584Z,8.10
2018-07-25T03:54:48.557Z,7.70
2018-07-25T03:57:16.857Z,8.40
2018-07-25T03:59:45.106Z,8.00
2018-07-25T04:02:13.135Z,8.68
2018-07-25T04:04:41.571Z,7.70
2018-07-25T04:07:09.754Z,8.13
2018-07-25T04:09:41.745Z,8.35
2018-07-25T04:12:09.909Z,8.58
2018-07-25T04:14:38.187Z,8.13
2018-07-25T04:17:06.983Z,8.20
2018-07-25T04:19:39.094Z,7.92
2018-07-25T04:22:07.643Z,8.10
2018-07-25T04:24:35.917Z,7.83
2018-07-25T04:27:05.331Z,7.70
2018-07-25T04:29:33.618Z,7.33
2018-07-25T04:32:01.974Z,7.80
2018-07-25T04:34:32.389Z,8.63
2018-07-25T04:37:00.653Z,7.37
2018-07-25T04:39:28.989Z,7.30
2018-07-25T04:41:57.319Z,7.35
2018-07-25T04:44:31.808Z,7.00
2018-07-25T04:46:59.917Z,6.80
2018-07-25T04:49:28.905Z,7.03
2018-07-25T04:52:01.741Z,6.57
2018-07-25T04:54:29.976Z,6.30
2018-07-25T04:56:58.301Z,6.92
2018-07-25T04:59:26.384Z,6.20
2018-07-25T05:01:54.795Z,7.00
2018-07-25T05:04:22.809Z,7.20
2018-07-25T05:06:51.079Z,7.45
2018-07-25T05:09:22.746Z,7.72
2018-07-25T05:11:50.985Z,7.70
2018-07-25T05:14:19.140Z,7.20
2018-07-25T05:16:47.342Z,7.05
2018-07-25T05:19:16.167Z,7.22
2018-07-25T05:21:44.667Z,7.30
2018-07-25T05:24:12.937Z,7.33
2018-07-25T05:26:41.332Z,6.80
2018-07-25T05:29:11.910Z,6.80
2018-07-25T05:31:40.305Z,7.12
2018-07-25T05:34:08.699Z,7.40
2018-07-25T05:36:37.105Z,7.60
2018-07-25T05:39:12.424Z,7.90
2018-07-25T05:41:41.410Z,7.23
2018-07-25T05:44:09.956Z,7.15
2018-07-25T05:46:38.721Z,7.00
2018-07-25T05:49:08.285Z,6.67
2018-07-25T05:51:36.911Z,7.00
2018-07-25T05:54:06.025Z,7.80
2018-07-25T05:56:37.823Z,8.10
2018-07-25T05:59:06.743Z,8.10
2018-07-25T06:01:34.995Z,6.90
2018-07-25T06:04:03.509Z,7.20
2018-07-25T06:06:32.999Z,7.00
2018-07-25T06:09:01.507Z,7.10
2018-07-25T06:11:29.899Z,6.60
2018-07-25T06:13:58.231Z,6.90
2018-07-25T06:16:37.166Z,6.83
2018-07-25T06:19:05.251Z,6.15
2018-07-25T06:21:33.498Z,6.03
2018-07-25T06:24:01.854Z,6.25
2018-07-25T06:26:29.952Z,6.75
2018-07-25T06:28:58.336Z,5.90
2018-07-25T06:31:26.871Z,6.40
2018-07-25T06:33:59.554Z,6.30
2018-07-25T06:36:27.953Z,6.42
2018-07-25T06:38:56.348Z,6.47
2018-07-25T06:41:37.541Z,6.30
2018-07-25T06:44:06.141Z,6.20
2018-07-25T06:46:34.323Z,5.93
2018-07-25T06:49:02.415Z,5.40
2018-07-25T06:51:35.951Z,5.95
2018-07-25T06:54:04.211Z,8.55
2018-07-25T06:56:32.628Z,5.10
2018-07-25T06:59:00.511Z,5.30
2018-07-25T07:01:36.187Z,5.30
2018-07-25T07:04:04.670Z,5.30
2018-07-25T07:06:33.119Z,5.37
2018-07-25T07:09:01.567Z,5.60
2018-07-25T07:11:31.213Z,5.90
2018-07-25T07:13:59.338Z,5.65
2018-07-25T07:16:27.388Z,5.80
2018-07-25T07:18:56.908Z,6.20
2018-07-25T07:21:25.555Z,3.80
2018-07-25T07:23:53.927Z,3.30
2018-07-25T07:26:22.474Z,3.70
2018-07-25T07:28:50.734Z,3.40
2018-07-25T07:31:26.319Z,3.22
2018-07-25T07:33:54.710Z,3.45
2018-07-25T07:36:23.165Z,3.30
2018-07-25T07:38:53.743Z,3.17
2018-07-25T07:41:22.245Z,2.80
2018-07-25T07:43:50.657Z,2.80
2018-07-25T07:46:18.940Z,3.10
2018-07-25T07:48:59.029Z,3.40
2018-07-25T07:51:27.268Z,3.30
2018-07-25T07:53:55.825Z,3.45
2018-07-25T07:56:24.130Z,3.50
2018-07-25T07:58:55.866Z,3.60
2018-07-25T08:01:23.954Z,3.75
2018-07-25T08:03:52.265Z,3.00
2018-07-25T08:06:20.655Z,3.20
2018-07-25T08:09:11.685Z,3.60
2018-07-25T08:11:40.276Z,3.60
2018-07-25T08:14:08.870Z,3.50
2018-07-25T08:16:37.349Z,3.30
2018-07-25T08:19:05.909Z,3.50
2018-07-25T08:21:34.234Z,3.50
2018-07-25T08:24:02.472Z,3.67
2018-07-25T08:26:32.692Z,3.70
2018-07-25T08:29:00.996Z,3.60
2018-07-25T08:31:29.595Z,3.62
2018-07-25T08:33:57.994Z,3.67
2018-07-25T08:36:29.765Z,4.10
2018-07-25T08:38:59.385Z,3.67
2018-07-25T08:41:28.447Z,3.60
2018-07-25T08:43:56.709Z,4.17
2018-07-25T08:46:25.015Z,3.80
2018-07-25T08:48:53.097Z,3.92
2018-07-25T08:51:21.396Z,4.20
2018-07-25T08:53:49.817Z,3.67
2018-07-25T08:56:23.672Z,3.27
2018-07-25T08:58:51.976Z,3.30
2018-07-25T09:01:20.326Z,3.92
2018-07-25T09:03:48.588Z,4.00
2018-07-25T09:06:22.670Z,3.70
2018-07-25T09:08:50.968Z,4.12
2018-07-25T09:11:25.094Z,5.20
2018-07-25T09:13:53.650Z,4.60
2018-07-25T09:16:23.087Z,4.70
2018-07-25T09:24:37.493Z,5.10
2018-07-25T09:27:05.594Z,4.60
2018-07-25T09:29:34.002Z,4.70
2018-07-25T09:32:09.257Z,4.83
2018-07-25T09:34:37.417Z,4.40
2018-07-25T09:37:05.505Z,4.60
2018-07-25T09:39:33.622Z,4.10
2018-07-25T09:42:02.024Z,4.50
2018-07-25T09:44:30.439Z,4.45
2018-07-25T09:46:58.751Z,4.40
2018-07-25T09:49:27.026Z,4.90
2018-07-25T09:51:56.684Z,4.50
2018-07-25T09:54:25.250Z,4.00
2018-07-25T09:56:53.854Z,4.70
2018-07-25T09:59:35.038Z,4.53
2018-07-25T10:02:03.884Z,3.90
2018-07-25T10:04:33.495Z,4.90
2018-07-25T10:07:02.055Z,4.10
2018-07-25T10:09:33.526Z,4.75
2018-07-25T10:12:02.048Z,4.53
2018-07-25T10:14:30.664Z,4.10
2018-07-25T10:16:58.936Z,4.28
2018-07-25T10:19:27.552Z,4.10
2018-07-25T10:21:56.160Z,3.80
2018-07-25T10:24:24.671Z,3.90
2018-07-25T10:26:53.162Z,3.90
2018-07-25T10:29:39.565Z,4.00
2018-07-25T10:32:07.859Z,4.10
2018-07-25T10:34:36.482Z,3.90
2018-07-25T10:37:04.937Z,3.70
2018-07-25T10:42:26.174Z,4.15
2018-07-25T10:44:54.607Z,4.08
2018-07-25T10:47:23.628Z,3.65
2018-07-25T10:50:04.911Z,4.40
2018-07-25T10:52:33.618Z,4.10
2018-07-25T10:55:02.095Z,3.40
2018-07-25T10:57:30.943Z,3.80
2018-07-25T10:59:59.341Z,3.80
2018-07-25T11:02:28.020Z,4.22
2018-07-25T11:04:56.412Z,4.20
2018-07-25T11:07:24.732Z,4.05
2018-07-25T11:09:53.129Z,3.70
2018-07-25T11:12:21.400Z,3.80
2018-07-25T11:14:49.622Z,3.90
2018-07-25T11:17:18.038Z,3.80
2018-07-25T11:19:46.510Z,3.95
2018-07-25T11:22:15.407Z,4.00
2018-07-25T11:24:45.386Z,3.90
2018-07-25T11:27:13.779Z,3.55
2018-07-25T11:29:42.673Z,3.40
2018-07-25T11:32:10.849Z,3.35
2018-07-25T11:34:39.253Z,4.00
2018-07-25T11:37:07.603Z,4.00
2018-07-25T11:39:36.179Z,4.30
2018-07-25T11:42:05.067Z,4.17
2018-07-25T11:44:33.322Z,3.60
2018-07-25T11:47:01.373Z,3.40
2018-07-25T11:49:29.351Z,3.70
2018-07-25T11:51:57.337Z,3.40
2018-07-25T11:54:25.526Z,3.50
2018-07-25T11:56:53.956Z,3.30
2018-07-25T11:59:22.451Z,3.72
2018-07-25T12:01:50.862Z,4.00
2018-07-25T12:04:19.845Z,3.60
2018-07-25T12:06:47.941Z,4.03
2018-07-25T12:09:16.159Z,3.90
2018-07-25T12:11:45.710Z,3.60
2018-07-25T12:14:15.373Z,4.00
2018-07-25T12:16:53.525Z,4.20
2018-07-25T12:19:21.905Z,4.12
2018-07-25T12:21:50.479Z,3.58
2018-07-25T12:24:28.951Z,3.40
2018-07-25T12:26:57.339Z,3.40
2018-07-25T12:29:25.918Z,3.35
2018-07-25T12:31:54.146Z,3.70
2018-07-25T12:34:35.819Z,3.80
2018-07-25T12:37:03.837Z,3.50
2018-07-25T12:39:32.928Z,3.40
2018-07-25T12:42:02.520Z,3.52
2018-07-25T12:44:32.211Z,3.60
2018-07-25T12:47:00.586Z,3.75
2018-07-25T12:49:28.998Z,3.30
2018-07-25T12:51:57.404Z,3.25
2018-07-25T12:57:21.409Z,3.20
2018-07-25T12:59:49.699Z,3.08
2018-07-25T13:02:17.989Z,2.67
2018-07-25T13:04:46.427Z,3.35
2018-07-25T13:07:15.589Z,3.70
2018-07-25T13:09:44.007Z,3.40
2018-07-25T13:12:12.005Z,3.50
2018-07-25T13:14:40.344Z,3.27
2018-07-25T13:17:23.333Z,3.50
2018-07-25T13:19:51.695Z,3.10
2018-07-25T13:22:20.318Z,2.85
2018-07-25T13:27:49.112Z,3.47
2018-07-25T13:30:17.291Z,3.37
2018-07-25T13:32:45.744Z,3.33
2018-07-25T13:35:17.401Z,3.60
2018-07-25T13:37:46.232Z,3.10
2018-07-25T13:40:14.734Z,3.02
2018-07-25T13:42:43.981Z,3.60
2018-07-25T13:45:12.384Z,3.17
2018-07-25T13:47:40.948Z,3.60
2018-07-25T13:50:09.544Z,3.30
2018-07-25T13:52:37.967Z,3.40
2018-07-25T13:55:23.550Z,2.98
2018-07-25T13:57:51.948Z,2.90
2018-07-25T14:00:20.537Z,2.70
2018-07-25T14:02:55.691Z,3.50
2018-07-25T14:05:24.293Z,3.60
2018-07-25T14:07:52.669Z,3.10
2018-07-25T14:10:27.928Z,2.90
2018-07-25T14:12:56.421Z,2.77
2018-07-25T14:15:24.754Z,2.70
2018-07-25T14:17:53.151Z,3.00
2018-07-25T14:20:23.790Z,3.50
2018-07-25T14:22:53.203Z,2.70
2018-07-25T14:25:21.718Z,3.15
2018-07-25T14:27:57.058Z,3.30
2018-07-25T14:30:25.496Z,3.10
2018-07-25T14:32:54.446Z,2.90
2018-07-25T14:35:22.850Z,2.75
2018-07-25T14:37:54.954Z,2.67
2018-07-25T14:40:23.449Z,2.70
2018-07-25T14:42:51.788Z,3.30
2018-07-25T14:45:20.272Z,2.55
2018-07-25T14:50:47.531Z,2.80
2018-07-25T14:53:16.151Z,2.60
2018-07-25T14:55:44.594Z,2.75
2018-07-25T14:58:13.264Z,2.33
2018-07-25T15:00:59.440Z,2.40
2018-07-25T15:03:27.955Z,2.90
2018-07-25T15:05:57.154Z,2.70
2018-07-25T15:14:12.264Z,2.50
2018-07-25T15:16:40.579Z,2.10
2018-07-25T15:19:08.977Z,2.30
2018-07-25T15:24:43.117Z,2.00
2018-07-25T15:27:11.531Z,2.20
2018-07-25T15:29:39.883Z,2.05
2018-07-25T15:32:08.382Z,2.40
2018-07-25T15:34:36.920Z,2.00
2018-07-25T15:37:05.482Z,2.20
2018-07-25T15:39:33.889Z,2.12
2018-07-25T15:42:02.548Z,2.03
2018-07-25T15:44:31.931Z,2.15
2018-07-25T15:47:01.315Z,2.20
2018-07-25T15:49:29.624Z,2.10
2018-07-25T15:51:58.572Z,2.17
2018-07-25T15:54:32.479Z,2.30
2018-07-25T15:57:00.979Z,2.00
2018-07-25T15:59:29.525Z,2.10
2018-07-25T16:01:57.971Z,2.30
2018-07-25T16:04:26.495Z,2.72
2018-07-25T16:06:54.766Z,2.12
2018-07-25T16:09:23.163Z,2.17
2018-07-25T16:11:51.394Z,2.40
2018-07-25T16:14:22.248Z,2.10
2018-07-25T16:16:50.752Z,2.05
2018-07-25T16:19:18.960Z,2.00
2018-07-25T16:21:47.450Z,2.00
2018-07-25T16:24:16.100Z,2.10
2018-07-25T16:26:44.531Z,2.17
2018-07-25T16:29:12.820Z,2.10
2018-07-25T16:31:42.971Z,2.10
2018-07-25T16:34:11.390Z,2.10
2018-07-25T16:36:39.811Z,2.10
2018-07-25T16:39:11.025Z,2.37
2018-07-25T16:47:19.137Z,2.20
2018-07-25T16:49:47.391Z,2.22
2018-07-25T16:52:16.403Z,2.25
2018-07-25T16:54:44.905Z,2.10
2018-07-25T16:57:13.441Z,2.10
2018-07-25T16:59:41.815Z,2.30
2018-07-25T17:02:10.490Z,2.27
2018-07-25T17:04:38.722Z,2.20
2018-07-25T17:07:07.412Z,2.00
2018-07-25T17:09:35.973Z,2.05
2018-07-25T17:12:04.395Z,2.50
2018-07-25T17:14:33.589Z,2.00
2018-07-25T17:17:21.074Z,2.25
2018-07-25T17:19:49.474Z,2.40
2018-07-25T17:22:17.791Z,2.22
2018-07-25T17:24:45.956Z,2.40
2018-07-25T17:27:21.128Z,2.30
2018-07-25T17:29:49.366Z,2.22
2018-07-25T17:32:17.487Z,2.60
2018-07-25T17:34:47.141Z,3.00
2018-07-25T17:37:22.268Z,3.20
2018-07-25T17:39:50.568Z,3.40
2018-07-25T17:42:18.967Z,3.30
2018-07-25T17:44:47.265Z,3.80
2018-07-25T17:47:15.554Z,3.40
2018-07-25T17:49:43.946Z,3.33
2018-07-25T17:52:12.561Z,3.50
2018-07-25T17:54:46.403Z,3.37
2018-07-25T17:57:14.904Z,3.33
2018-07-25T17:59:43.488Z,3.00
2018-07-25T18:02:12.014Z,3.60
2018-07-25T18:04:42.022Z,3.30
2018-07-25T18:07:10.533Z,3.70
2018-07-25T18:09:38.948Z,3.47
2018-07-25T18:12:12.663Z,3.37
2018-07-25T18:14:41.271Z,3.50
2018-07-25T18:17:09.901Z,4.10
2018-07-25T18:19:38.129Z,4.08
2018-07-25T18:22:08.405Z,3.90
2018-07-25T18:24:37.187Z,3.70
2018-07-25T18:27:05.413Z,3.98
2018-07-25T18:29:58.770Z,4.10
2018-07-25T18:32:27.153Z,3.80
2018-07-25T18:34:56.455Z,3.70
2018-07-25T18:37:24.685Z,3.90
2018-07-25T18:39:53.205Z,4.00
2018-07-25T18:42:21.593Z,4.33
2018-07-25T18:44:59.013Z,3.83
2018-07-25T18:47:27.599Z,4.08
2018-07-25T18:50:18.594Z,4.42
2018-07-25T18:52:47.201Z,4.15
2018-07-25T18:55:15.622Z,3.80
2018-07-25T18:57:50.829Z,3.60
2018-07-25T19:00:19.078Z,3.50
2018-07-25T19:02:47.386Z,3.80
2018-07-25T19:08:22.776Z,3.55
2018-07-25T19:10:50.920Z,3.37
2018-07-25T19:13:26.165Z,3.70
2018-07-25T19:15:54.753Z,3.40
2018-07-25T19:18:23.355Z,3.40
2018-07-25T19:20:51.843Z,3.58
2018-07-25T19:23:20.049Z,3.50
2018-07-25T19:25:48.455Z,3.60
2018-07-25T19:28:16.856Z,3.30
2018-07-25T19:30:51.917Z,3.40
2018-07-25T19:33:20.085Z,3.37
2018-07-25T19:35:48.785Z,3.20
2018-07-25T19:38:17.304Z,3.60
2018-07-25T19:40:56.541Z,3.80
2018-07-25T19:43:24.939Z,3.47
2018-07-25T19:45:53.426Z,4.85
2018-07-25T19:48:21.987Z,3.80
2018-07-25T19:51:04.295Z,3.65
2018-07-25T19:53:32.662Z,3.50
2018-07-25T19:56:01.350Z,3.50
2018-07-25T19:58:29.858Z,3.50
2018-07-25T20:01:12.688Z,3.67
2018-07-25T20:03:40.876Z,3.90
2018-07-25T20:06:09.170Z,3.60
2018-07-25T20:08:37.275Z,3.77
2018-07-25T20:11:07.906Z,3.75
2018-07-25T20:13:40.409Z,3.67
2018-07-25T20:16:08.854Z,3.60
2018-07-25T20:18:37.285Z,4.10
2018-07-25T20:21:05.721Z,3.67
2018-07-25T20:23:34.258Z,3.50
2018-07-25T20:26:07.213Z,4.30
2018-07-25T20:28:36.239Z,3.83
2018-07-25T20:31:05.775Z,3.92
2018-07-25T20:33:46.897Z,4.10
2018-07-25T20:36:15.977Z,3.52
2018-07-25T20:38:44.569Z,3.75
2018-07-25T20:41:13.057Z,3.72
2018-07-25T20:43:45.267Z,3.80
2018-07-25T20:46:13.618Z,4.40
2018-07-25T20:48:42.439Z,3.83
2018-07-25T20:51:10.545Z,4.20
2018-07-25T20:53:57.764Z,4.20
2018-07-25T20:56:26.097Z,3.62
2018-07-25T20:58:54.560Z,4.20
2018-07-25T21:01:45.970Z,4.00
2018-07-25T21:04:13.946Z,3.92
2018-07-25T21:06:42.244Z,3.60
2018-07-25T21:09:12.396Z,3.90
2018-07-25T21:11:40.801Z,4.20
2018-07-25T21:14:09.617Z,4.10
2018-07-25T21:16:38.007Z,4.13
2018-07-25T21:19:06.735Z,4.05
2018-07-25T21:21:35.294Z,4.17
2018-07-25T21:24:04.019Z,4.17
2018-07-25T21:26:32.114Z,3.60
2018-07-25T21:29:04.574Z,4.42
2018-07-25T21:31:33.005Z,3.98
2018-07-25T21:34:01.315Z,3.80
2018-07-25T21:36:29.590Z,3.70
2018-07-25T21:42:01.673Z,3.80
2018-07-25T21:44:29.778Z,3.80
2018-07-25T21:46:58.889Z,3.87
2018-07-25T21:49:40.986Z,4.37
2018-07-25T21:52:09.415Z,4.00
2018-07-25T21:54:37.667Z,4.10
2018-07-25T21:57:06.096Z,4.20
2018-07-25T21:59:40.537Z,4.03
2018-07-25T22:02:09.006Z,3.90
2018-07-25T22:04:37.510Z,3.75
2018-07-25T22:10:02.766Z,4.20
2018-07-25T22:12:31.369Z,3.90
2018-07-25T22:14:59.628Z,4.42
2018-07-25T22:17:27.900Z,4.40
2018-07-25T22:19:56.353Z,4.17
2018-07-25T22:22:24.793Z,4.20
2018-07-25T22:24:56.418Z,4.40
2018-07-25T22:27:25.483Z,4.10
2018-07-25T22:29:54.474Z,4.35
2018-07-25T22:32:22.744Z,4.30
2018-07-25T22:34:54.417Z,4.30
2018-07-25T22:37:22.518Z,4.10
2018-07-25T22:39:50.834Z,4.20
2018-07-25T22:42:22.394Z,4.28
2018-07-25T22:44:50.794Z,4.20
2018-07-25T22:47:18.989Z,4.30
2018-07-25T22:49:47.164Z,3.95
2018-07-25T22:52:15.580Z,4.20
2018-07-25T22:54:44.066Z,4.40
2018-07-25T22:57:12.366Z,4.40
2018-07-25T22:59:43.715Z,4.10
2018-07-25T23:02:12.033Z,4.50
2018-07-25T23:04:40.337Z,4.30
2018-07-25T23:07:08.743Z,4.35
2018-07-25T23:09:38.250Z,4.25
2018-07-25T23:12:06.247Z,4.50
2018-07-25T23:14:34.709Z,4.50
2018-07-25T23:17:03.151Z,4.62
2018-07-25T23:22:34.819Z,4.40
2018-07-25T23:25:03.152Z,4.60
2018-07-25T23:27:31.414Z,4.90
2018-07-25T23:29:59.516Z,4.80
2018-07-25T23:32:28.002Z,5.17
2018-07-25T23:34:55.776Z,4.80
2018-07-25T23:37:24.190Z,3.97
2018-07-25T23:39:52.299Z,4.53
2018-07-25T23:42:23.757Z,4.10
2018-07-25T23:44:51.643Z,4.17
2018-07-25T23:47:19.513Z,4.40
2018-07-25T23:49:48.028Z,4.27
2018-07-25T23:52:16.211Z,4.50
2018-07-25T23:54:45.109Z,5.00
2018-07-25T23:57:13.655Z,4.95
2018-07-25T23:59:41.964Z,4.80
